Time;durP1;ratioP1;P1;durP2;ratioP2;P2;SDS_P1;SDS_P2;PMS_P1;PMS_P2;Temp;Humidity;BMP_temperature;BMP_pressure;BME280_temperature;BME280_humidity;BME280_pressure;Samples;Min_cycle;Max_cycle;Signal;HPM_P1;HPM_P2
2021/10/04 00:01:58;;;;;;;0.90;0.75;;;22.40;65.70;;;;;;5013314;28;20306;-70
2021/10/04 00:04:23;;;;;;;1.38;0.75;;;22.40;65.80;;;;;;5012838;28;20079;-69
2021/10/04 00:06:49;;;;;;;0.90;0.60;;;22.40;65.70;;;;;;5010570;28;20046;-70
2021/10/04 00:09:15;;;;;;;0.93;0.77;;;22.40;65.60;;;;;;5012582;28;20041;-69
2021/10/04 00:11:41;;;;;;;1.52;0.60;;;22.40;65.70;;;;;;5012601;28;20025;-70
2021/10/04 00:14:07;;;;;;;2.72;0.85;;;22.40;65.80;;;;;;5012847;28;20026;-70
2021/10/04 00:16:35;;;;;;;2.60;0.80;;;22.40;65.70;;;;;;5012219;28;20060;-64
2021/10/04 00:19:01;;;;;;;2.00;0.73;;;22.40;65.70;;;;;;5012243;28;20068;-70
2021/10/04 00:21:26;;;;;;;1.88;0.80;;;22.40;65.70;;;;;;5012724;28;20387;-70
2021/10/04 00:23:52;;;;;;;1.25;0.57;;;22.40;65.70;;;;;;5011893;28;20142;-70
2021/10/04 00:26:18;;;;;;;1.30;0.90;;;22.40;65.80;;;;;;5012438;28;20033;-70
2021/10/04 00:28:43;;;;;;;1.15;0.70;;;22.40;65.50;;;;;;5011690;28;20368;-70
2021/10/04 00:31:09;;;;;;;1.10;0.73;;;22.40;65.30;;;;;;5013057;28;20034;-70
2021/10/04 00:33:35;;;;;;;0.60;0.60;;;22.30;65.20;;;;;;5011709;28;20034;-64
2021/10/04 00:36:01;;;;;;;1.45;0.63;;;22.40;65.30;;;;;;5011896;28;20029;-70
2021/10/04 00:38:26;;;;;;;0.93;0.60;;;22.40;65.10;;;;;;5010886;28;20121;-70
2021/10/04 00:40:52;;;;;;;1.10;0.77;;;22.40;65.90;;;;;;5012064;28;20422;-70
2021/10/04 00:43:19;;;;;;;1.05;0.60;;;22.30;65.00;;;;;;5012131;28;20092;-71
2021/10/04 00:45:45;;;;;;;0.93;0.63;;;22.30;65.00;;;;;;5011538;28;20390;-70
2021/10/04 00:48:11;;;;;;;1.35;0.70;;;22.40;65.10;;;;;;5011864;28;20026;-70
2021/10/04 00:50:36;;;;;;;1.33;0.57;;;22.40;65.10;;;;;;5010687;28;20026;-64
2021/10/04 00:53:02;;;;;;;0.90;0.70;;;22.40;65.60;;;;;;5011748;28;20041;-71
2021/10/04 00:55:29;;;;;;;0.70;0.60;;;22.40;64.90;;;;;;5012064;28;20040;-71
2021/10/04 00:57:56;;;;;;;0.90;0.60;;;22.30;64.80;;;;;;5011522;28;20026;-69
2021/10/04 01:00:25;;;;;;;2.28;1.02;;;22.30;64.70;;;;;;5012056;28;20061;-71
2021/10/04 01:02:51;;;;;;;0.75;0.50;;;22.30;64.60;;;;;;5011224;28;20034;-70
2021/10/04 01:05:17;;;;;;;0.70;0.50;;;22.30;64.70;;;;;;5011746;28;20026;-70
2021/10/04 01:07:43;;;;;;;1.33;0.70;;;22.30;64.60;;;;;;5027488;28;20045;-70
2021/10/04 01:10:11;;;;;;;0.90;0.63;;;22.30;64.60;;;;;;5014881;28;20038;-70
2021/10/04 01:12:48;;;;;;;0.93;0.70;;;22.30;64.40;;;;;;5011408;28;20038;-63
2021/10/04 01:15:16;;;;;;;0.85;0.80;;;22.30;64.30;;;;;;5011691;28;20494;-68
2021/10/04 01:17:42;;;;;;;1.10;0.70;;;22.30;64.20;;;;;;5010790;28;20030;-70
2021/10/04 01:20:11;;;;;;;1.05;0.85;;;22.30;64.30;;;;;;5011484;28;20029;-70
2021/10/04 01:22:36;;;;;;;1.48;0.75;;;22.30;64.00;;;;;;5010970;28;20061;-63
2021/10/04 01:25:03;;;;;;;1.00;0.80;;;22.30;64.20;;;;;;5010569;28;20068;-70
2021/10/04 01:27:29;;;;;;;0.85;0.60;;;22.30;64.00;;;;;;5011453;28;20497;-71
2021/10/04 01:29:54;;;;;;;0.93;0.70;;;22.30;64.00;;;;;;5009688;28;20034;-71
2021/10/04 01:32:20;;;;;;;0.80;0.60;;;22.30;63.80;;;;;;5011615;28;20034;-70
2021/10/04 01:34:46;;;;;;;1.10;0.63;;;22.30;63.90;;;;;;5010573;28;20034;-70
2021/10/04 01:37:12;;;;;;;1.80;0.80;;;22.30;63.80;;;;;;5010950;28;20518;-70
2021/10/04 01:39:37;;;;;;;0.47;0.40;;;22.30;63.80;;;;;;5010674;28;20038;-65
2021/10/04 01:42:03;;;;;;;0.70;0.50;;;22.30;63.80;;;;;;5011297;28;20034;-70
2021/10/04 01:44:29;;;;;;;0.90;0.60;;;22.30;63.70;;;;;;5011583;28;20026;-70
2021/10/04 01:46:55;;;;;;;0.70;0.60;;;22.30;63.70;;;;;;5009666;28;20109;-70
2021/10/04 01:49:21;;;;;;;1.02;0.60;;;22.30;63.60;;;;;;5011326;28;20030;-71
2021/10/04 01:51:46;;;;;;;1.15;0.70;;;22.30;63.70;;;;;;5009550;28;20065;-70
2021/10/04 01:54:12;;;;;;;1.17;0.50;;;22.30;63.50;;;;;;5011483;28;20034;-70
2021/10/04 01:56:37;;;;;;;1.02;0.50;;;22.30;63.40;;;;;;5009605;28;20471;-64
2021/10/04 01:59:03;;;;;;;1.33;0.55;;;22.30;63.40;;;;;;5010529;28;20038;-70
2021/10/04 02:01:30;;;;;;;1.65;0.60;;;22.30;63.50;;;;;;5011352;28;20057;-70
2021/10/04 02:03:56;;;;;;;1.27;0.60;;;22.30;63.30;;;;;;5010294;28;20076;-70
2021/10/04 02:06:22;;;;;;;1.00;0.60;;;22.30;63.40;;;;;;5011016;28;20054;-70
2021/10/04 02:08:48;;;;;;;0.63;0.52;;;22.30;63.40;;;;;;5011141;28;20527;-69
2021/10/04 02:11:13;;;;;;;0.38;0.35;;;22.30;63.10;;;;;;5011107;28;20029;-70
2021/10/04 02:13:39;;;;;;;1.13;0.73;;;22.30;63.10;;;;;;5011158;28;20049;-65
2021/10/04 02:16:05;;;;;;;0.75;0.50;;;22.30;63.10;;;;;;5011235;28;20022;-71
2021/10/04 02:18:31;;;;;;;0.60;0.40;;;22.30;63.10;;;;;;5012776;28;20109;-70
2021/10/04 02:20:57;;;;;;;0.60;0.50;;;22.30;63.10;;;;;;5012930;28;20077;-71
2021/10/04 02:23:22;;;;;;;0.60;0.50;;;22.30;63.00;;;;;;5013232;28;20025;-71
2021/10/04 02:25:49;;;;;;;0.73;0.52;;;22.30;63.10;;;;;;5013808;28;20028;-70
2021/10/04 02:28:17;;;;;;;0.57;0.50;;;22.30;63.20;;;;;;5015001;28;20030;-71
2021/10/04 02:30:43;;;;;;;1.80;0.50;;;22.30;63.10;;;;;;5013591;28;20030;-71
2021/10/04 02:33:09;;;;;;;0.50;0.50;;;22.30;62.90;;;;;;5014782;28;20113;-71
2021/10/04 02:35:36;;;;;;;0.85;0.60;;;22.30;62.90;;;;;;5014298;28;20125;-70
2021/10/04 02:38:02;;;;;;;0.55;0.50;;;22.30;62.80;;;;;;5013193;28;20034;-70
2021/10/04 02:40:27;;;;;;;1.23;0.60;;;22.20;62.70;;;;;;5013816;28;20021;-67
2021/10/04 02:42:53;;;;;;;0.70;0.50;;;22.30;62.70;;;;;;5013856;28;20059;-71
2021/10/04 02:45:20;;;;;;;0.80;0.52;;;22.30;62.80;;;;;;5014325;28;20485;-71
2021/10/04 02:47:48;;;;;;;1.25;0.40;;;22.20;62.70;;;;;;5013746;28;20079;-71
2021/10/04 02:50:17;;;;;;;1.23;0.60;;;22.20;62.80;;;;;;5014327;28;20030;-70
2021/10/04 02:52:42;;;;;;;0.55;0.43;;;22.30;62.70;;;;;;5013611;28;20034;-70
2021/10/04 02:55:08;;;;;;;1.42;0.68;;;22.20;62.80;;;;;;5013535;28;20493;-71
2021/10/04 02:57:34;;;;;;;1.20;0.57;;;22.20;62.70;;;;;;5014289;28;20034;-71
2021/10/04 03:00:00;;;;;;;2.88;0.70;;;22.20;62.60;;;;;;5013242;28;20017;-70
2021/10/04 03:02:26;;;;;;;1.52;0.70;;;22.20;62.60;;;;;;5014238;28;20042;-71
2021/10/04 03:04:52;;;;;;;0.82;0.63;;;22.20;62.60;;;;;;5013324;28;20034;-70
2021/10/04 03:07:18;;;;;;;0.40;0.40;;;22.20;62.50;;;;;;5013780;28;20471;-71
2021/10/04 03:09:44;;;;;;;0.70;0.60;;;22.20;62.40;;;;;;5012673;28;20054;-71
2021/10/04 03:12:10;;;;;;;0.68;0.50;;;22.20;62.50;;;;;;5013654;28;20116;-71
2021/10/04 03:14:36;;;;;;;0.40;0.40;;;22.20;62.50;;;;;;5029247;28;20029;-71
2021/10/04 03:17:02;;;;;;;1.13;0.80;;;22.20;62.40;;;;;;5033232;28;20033;-70
2021/10/04 03:19:28;;;;;;;0.60;0.40;;;22.20;62.40;;;;;;5022243;28;20116;-70
2021/10/04 03:21:54;;;;;;;1.30;0.60;;;22.30;62.30;;;;;;5012941;28;20178;-70
2021/10/04 03:24:20;;;;;;;0.63;0.50;;;22.20;62.20;;;;;;5013476;28;20097;-70
2021/10/04 03:26:46;;;;;;;0.95;0.50;;;22.20;62.20;;;;;;5012535;28;20105;-70
2021/10/04 03:29:11;;;;;;;0.65;0.50;;;22.20;62.40;;;;;;5013664;28;20036;-68
2021/10/04 03:31:38;;;;;;;2.80;0.40;;;22.20;62.40;;;;;;5013142;28;20100;-71
2021/10/04 03:34:05;;;;;;;0.57;0.50;;;22.20;62.30;;;;;;5013093;28;20582;-69
2021/10/04 03:36:31;;;;;;;0.40;0.40;;;22.20;62.80;;;;;;5013613;28;20034;-69
2021/10/04 03:38:57;;;;;;;0.68;0.47;;;22.20;62.40;;;;;;5012688;28;20037;-69
2021/10/04 03:41:23;;;;;;;1.38;0.50;;;22.20;62.50;;;;;;5012989;28;20076;-71
2021/10/04 03:43:50;;;;;;;0.60;0.50;;;22.20;62.40;;;;;;5012749;28;20356;-69
2021/10/04 03:46:16;;;;;;;0.70;0.60;;;22.20;62.10;;;;;;5012276;28;20080;-70
2021/10/04 03:48:42;;;;;;;0.40;0.40;;;22.20;62.20;;;;;;5012847;28;20395;-63
2021/10/04 03:51:08;;;;;;;0.57;0.40;;;22.20;62.20;;;;;;5012758;28;20025;-69
2021/10/04 03:53:33;;;;;;;0.63;0.47;;;22.20;62.20;;;;;;5012826;28;20177;-70
2021/10/04 03:55:59;;;;;;;0.40;0.40;;;22.20;62.10;;;;;;5012340;28;20117;-70
2021/10/04 03:58:25;;;;;;;0.40;0.40;;;22.20;62.10;;;;;;5013141;28;20060;-70
2021/10/04 04:00:51;;;;;;;0.75;0.40;;;22.20;62.00;;;;;;5011594;28;20076;-70
2021/10/04 04:03:17;;;;;;;1.52;0.47;;;22.20;62.10;;;;;;5013262;28;20030;-71
2021/10/04 04:05:42;;;;;;;0.80;0.32;;;22.20;62.10;;;;;;5011051;28;20116;-63
2021/10/04 04:08:08;;;;;;;0.50;0.50;;;22.20;62.10;;;;;;5012524;28;20061;-70
2021/10/04 04:10:34;;;;;;;1.08;0.40;;;22.20;62.20;;;;;;5011588;28;20079;-71
2021/10/04 04:13:00;;;;;;;0.40;0.40;;;22.20;62.10;;;;;;5011415;28;20962;-70
2021/10/04 04:15:25;;;;;;;0.50;0.43;;;22.20;62.00;;;;;;5013230;28;20105;-70
2021/10/04 04:17:51;;;;;;;0.50;0.40;;;22.20;62.10;;;;;;5011667;28;20032;-70
2021/10/04 04:20:17;;;;;;;1.13;0.57;;;22.20;62.10;;;;;;5012544;28;20048;-70
2021/10/04 04:22:43;;;;;;;0.68;0.55;;;22.20;62.10;;;;;;5012007;28;20026;-63
2021/10/04 04:25:10;;;;;;;0.28;0.28;;;22.20;62.10;;;;;;5013099;28;20052;-66
2021/10/04 04:27:37;;;;;;;1.73;0.80;;;22.20;62.00;;;;;;5012257;28;20114;-69
2021/10/04 04:30:05;;;;;;;0.77;0.60;;;22.20;61.90;;;;;;5011858;28;20026;-71
2021/10/04 04:32:31;;;;;;;1.15;0.60;;;22.20;62.00;;;;;;5012772;28;20038;-71
2021/10/04 04:34:57;;;;;;;0.77;0.40;;;22.20;62.10;;;;;;5011432;28;20114;-71
2021/10/04 04:37:23;;;;;;;0.68;0.40;;;22.20;62.00;;;;;;5012032;28;20460;-70
2021/10/04 04:39:48;;;;;;;0.80;0.40;;;22.20;62.00;;;;;;5011538;28;20033;-70
2021/10/04 04:42:14;;;;;;;0.75;0.45;;;22.20;61.90;;;;;;5010245;28;20036;-69
2021/10/04 04:44:39;;;;;;;0.60;0.40;;;22.20;61.90;;;;;;5012204;28;20109;-71
2021/10/04 04:47:05;;;;;;;0.60;0.40;;;22.20;61.90;;;;;;5011377;28;20029;-71
2021/10/04 04:49:31;;;;;;;1.83;0.47;;;22.20;61.90;;;;;;5012116;28;20386;-71
2021/10/04 04:51:58;;;;;;;0.50;0.40;;;22.20;61.90;;;;;;5011214;28;20451;-70
2021/10/04 04:54:25;;;;;;;0.68;0.47;;;22.20;61.90;;;;;;5012252;28;20022;-71
2021/10/04 04:56:54;;;;;;;0.60;0.40;;;22.20;61.90;;;;;;5011315;28;20399;-71
2021/10/04 04:59:20;;;;;;;2.50;0.50;;;22.10;61.80;;;;;;5012275;28;20026;-71
2021/10/04 05:01:46;;;;;;;0.98;0.47;;;22.20;61.90;;;;;;5011354;28;20037;-66
2021/10/04 05:04:12;;;;;;;0.47;0.40;;;22.20;61.80;;;;;;5011843;28;20468;-71
2021/10/04 05:06:38;;;;;;;0.47;0.40;;;22.20;61.90;;;;;;5011783;28;20054;-71
2021/10/04 05:09:04;;;;;;;0.50;0.40;;;22.20;61.80;;;;;;5010966;28;20030;-71
2021/10/04 05:11:33;;;;;;;0.63;0.60;;;22.20;61.70;;;;;;5011657;28;20049;-71
2021/10/04 05:13:59;;;;;;;0.65;0.40;;;22.20;61.70;;;;;;5010849;28;20088;-70
2021/10/04 05:16:24;;;;;;;0.35;0.30;;;22.20;61.70;;;;;;5010558;28;20026;-71
2021/10/04 05:18:50;;;;;;;1.55;0.50;;;22.20;61.70;;;;;;5011483;28;20466;-69
2021/10/04 05:21:16;;;;;;;1.00;0.60;;;22.20;61.70;;;;;;5011434;28;20026;-71
2021/10/04 05:23:42;;;;;;;0.52;0.40;;;22.20;61.70;;;;;;5019766;28;20430;-67
2021/10/04 05:26:07;;;;;;;1.02;0.45;;;22.20;61.80;;;;;;5027842;28;20033;-70
2021/10/04 05:28:33;;;;;;;2.78;0.85;;;22.10;61.70;;;;;;5011999;28;20037;-70
2021/10/04 05:30:59;;;;;;;1.40;0.60;;;22.20;62.30;;;;;;5009670;28;20105;-69
2021/10/04 05:33:25;;;;;;;2.15;0.60;;;22.20;61.60;;;;;;5011559;28;20038;-69
2021/10/04 05:35:50;;;;;;;1.30;0.70;;;22.30;61.80;;;;;;5010583;28;20034;-68
2021/10/04 05:38:16;;;;;;;3.28;0.88;;;22.30;62.60;;;;;;5011532;28;20038;-69
2021/10/04 05:40:43;;;;;;;1.48;0.63;;;22.30;62.80;;;;;;5011547;28;20451;-62
2021/10/04 05:43:09;;;;;;;5.75;0.88;;;22.40;62.60;;;;;;5011052;28;20058;-68
2021/10/04 05:45:35;;;;;;;3.63;0.70;;;22.40;62.50;;;;;;5011635;28;20080;-68
2021/10/04 05:48:00;;;;;;;1.20;0.47;;;22.50;62.60;;;;;;5010116;28;20084;-68
2021/10/04 05:50:26;;;;;;;1.63;0.70;;;22.50;62.50;;;;;;5011910;28;20030;-67
2021/10/04 05:52:52;;;;;;;2.33;0.60;;;22.50;62.60;;;;;;5010901;28;20382;-68
2021/10/04 05:55:18;;;;;;;1.42;0.70;;;22.50;62.40;;;;;;5015266;28;20422;-67
2021/10/04 05:57:44;;;;;;;3.08;0.88;;;22.40;62.80;;;;;;5014914;28;20034;-64
2021/10/04 06:00:12;;;;;;;1.88;0.70;;;22.40;62.40;;;;;;5014434;28;20030;-60
2021/10/04 06:02:38;;;;;;;1.60;0.70;;;22.40;59.90;;;;;;4995736;28;20093;-66
2021/10/04 06:05:06;;;;;;;1.60;0.75;;;22.30;58.80;;;;;;5010030;28;20037;-66
2021/10/04 06:07:31;;;;;;;4.22;0.80;;;22.20;57.50;;;;;;5015371;28;20517;-66
2021/10/04 06:09:57;;;;;;;3.15;0.90;;;22.00;58.40;;;;;;5014664;28;20121;-65
2021/10/04 06:12:28;;;;;;;3.42;0.80;;;22.00;58.30;;;;;;5015062;28;20040;-65
2021/10/04 06:14:58;;;;;;;2.38;0.75;;;22.00;58.10;;;;;;5013889;28;20427;-66
2021/10/04 06:17:24;;;;;;;2.13;0.50;;;22.00;57.70;;;;;;5015030;28;20034;-65
2021/10/04 06:19:50;;;;;;;3.50;0.90;;;22.00;57.30;;;;;;5013965;28;20017;-65
2021/10/04 06:22:17;;;;;;;4.22;0.80;;;22.00;57.80;;;;;;4989997;28;20049;-68
2021/10/04 06:24:42;;;;;;;5.10;0.80;;;22.00;58.00;;;;;;5014229;28;20079;-66
2021/10/04 06:27:08;;;;;;;4.25;0.90;;;22.10;59.40;;;;;;5027696;28;20124;-67
2021/10/04 06:29:34;;;;;;;5.15;1.10;;;22.10;60.10;;;;;;5018760;28;20459;-67
2021/10/04 06:31:59;;;;;;;7.53;1.10;;;22.10;60.70;;;;;;5006010;28;20387;-66
2021/10/04 06:34:25;;;;;;;2.78;0.60;;;22.20;60.50;;;;;;5015502;28;20026;-67
2021/10/04 06:36:51;;;;;;;4.13;0.70;;;22.30;60.30;;;;;;5014446;28;20466;-68
2021/10/04 06:39:17;;;;;;;2.85;0.85;;;22.30;60.60;;;;;;5014233;28;20434;-68
2021/10/04 06:41:42;;;;;;;2.45;0.80;;;22.40;60.80;;;;;;5014695;28;20022;-67
2021/10/04 06:44:09;;;;;;;2.20;0.70;;;22.40;60.90;;;;;;5013110;28;20025;-67
2021/10/04 06:46:36;;;;;;;4.18;0.73;;;22.40;61.10;;;;;;5014760;28;20022;-67
2021/10/04 06:49:02;;;;;;;1.08;0.63;;;22.40;60.80;;;;;;5013475;28;20030;-66
2021/10/04 06:51:28;;;;;;;3.28;0.80;;;22.50;61.10;;;;;;5014563;28;20413;-67
2021/10/04 06:53:53;;;;;;;1.63;0.55;;;22.50;61.50;;;;;;5012832;28;20030;-66
2021/10/04 06:56:19;;;;;;;2.92;1.08;;;22.50;61.20;;;;;;5014116;28;20057;-66
2021/10/04 06:58:44;;;;;;;3.88;0.90;;;22.50;61.40;;;;;;5014195;28;20072;-66
2021/10/04 07:01:10;;;;;;;4.85;1.10;;;22.50;61.50;;;;;;5012482;28;20038;-67
2021/10/04 07:03:36;;;;;;;3.40;0.90;;;22.50;61.30;;;;;;5014078;28;20040;-67
2021/10/04 07:06:02;;;;;;;3.28;0.82;;;22.50;61.80;;;;;;5011927;28;20076;-67
2021/10/04 07:08:28;;;;;;;2.25;0.65;;;22.50;61.70;;;;;;5013854;28;20497;-67
2021/10/04 07:10:54;;;;;;;2.40;0.60;;;22.50;61.80;;;;;;5013166;28;20113;-65
2021/10/04 07:13:20;;;;;;;2.42;0.82;;;22.50;61.90;;;;;;5013762;28;20103;-65
2021/10/04 07:15:46;;;;;;;3.85;0.70;;;22.50;61.50;;;;;;5013832;28;20034;-65
2021/10/04 07:18:11;;;;;;;3.85;0.77;;;22.50;61.60;;;;;;5013109;28;20029;-65
2021/10/04 07:20:37;;;;;;;4.38;1.00;;;22.60;61.90;;;;;;5013680;28;20079;-66
2021/10/04 07:23:04;;;;;;;2.20;0.60;;;22.50;61.70;;;;;;5012634;28;20137;-66
2021/10/04 07:25:34;;;;;;;2.13;0.85;;;22.60;61.90;;;;;;5013104;28;20471;-70
2021/10/04 07:28:00;;;;;;;1.42;0.65;;;22.60;61.80;;;;;;5012867;28;20030;-69
2021/10/04 07:30:26;;;;;;;4.80;0.75;;;22.60;61.80;;;;;;5011447;28;20036;-70
2021/10/04 07:32:52;;;;;;;4.90;1.17;;;22.50;61.70;;;;;;5012797;28;20038;-64
2021/10/04 07:35:18;;;;;;;4.50;1.10;;;22.50;61.90;;;;;;5012594;28;20430;-64
2021/10/04 07:37:44;;;;;;;3.83;0.98;;;22.50;62.00;;;;;;5008886;28;20037;-66
2021/10/04 07:40:11;;;;;;;2.75;0.70;;;22.50;62.00;;;;;;5012330;28;20033;-67
2021/10/04 07:42:37;;;;;;;3.83;0.80;;;22.50;62.10;;;;;;5013263;28;20030;-67
2021/10/04 07:45:03;;;;;;;3.30;0.93;;;22.50;61.90;;;;;;5020047;28;20037;-66
2021/10/04 07:47:29;;;;;;;4.65;0.80;;;22.50;61.90;;;;;;5017823;28;20037;-67
2021/10/04 07:49:55;;;;;;;2.30;0.80;;;22.50;61.90;;;;;;5012207;28;20033;-66
2021/10/04 07:52:21;;;;;;;3.63;0.60;;;22.50;61.90;;;;;;5009868;28;20041;-64
2021/10/04 07:54:47;;;;;;;1.90;0.70;;;22.50;61.90;;;;;;5010314;28;20044;-67
2021/10/04 07:57:13;;;;;;;2.00;0.70;;;22.50;61.90;;;;;;5012970;28;20050;-66
2021/10/04 07:59:42;;;;;;;0.93;0.50;;;22.50;61.90;;;;;;5012978;28;20115;-66
2021/10/04 08:02:09;;;;;;;2.80;0.90;;;22.50;62.10;;;;;;5012126;28;20487;-67
2021/10/04 08:04:35;;;;;;;3.17;0.80;;;22.50;62.20;;;;;;5012752;28;20038;-66
2021/10/04 08:07:00;;;;;;;2.50;0.60;;;22.50;62.20;;;;;;5012236;28;20050;-66
2021/10/04 08:09:26;;;;;;;3.22;0.80;;;22.40;62.10;;;;;;5012888;28;20045;-66
2021/10/04 08:11:52;;;;;;;1.75;0.73;;;22.40;62.20;;;;;;5010896;28;20521;-63
2021/10/04 08:14:17;;;;;;;1.35;0.60;;;22.40;62.20;;;;;;5011963;28;20034;-66
2021/10/04 08:16:43;;;;;;;3.40;0.70;;;22.40;62.10;;;;;;5012518;28;20030;-67
2021/10/04 08:19:09;;;;;;;2.58;0.75;;;22.40;62.10;;;;;;5012190;28;20082;-67
2021/10/04 08:21:35;;;;;;;2.45;1.00;;;22.40;62.00;;;;;;5013039;28;20026;-70
2021/10/04 08:24:00;;;;;;;2.67;0.70;;;22.40;62.10;;;;;;5007521;28;20046;-70
2021/10/04 08:26:28;;;;;;;1.10;0.70;;;22.40;62.30;;;;;;5012778;28;20057;-68
2021/10/04 08:28:53;;;;;;;1.98;0.60;;;22.40;62.30;;;;;;5012002;28;20025;-65
2021/10/04 08:31:20;;;;;;;1.65;0.60;;;22.40;62.20;;;;;;5011469;28;20427;-69
2021/10/04 08:33:46;;;;;;;3.05;1.25;;;22.40;62.40;;;;;;5012320;28;20040;-70
2021/10/04 08:36:11;;;;;;;1.52;0.80;;;22.40;62.40;;;;;;5021083;28;20648;-69
2021/10/04 08:38:37;;;;;;;3.70;0.80;;;22.40;62.10;;;;;;5011170;28;20034;-70
2021/10/04 08:41:03;;;;;;;1.17;0.68;;;22.40;62.40;;;;;;5011646;28;20118;-70
2021/10/04 08:43:30;;;;;;;1.77;0.90;;;22.30;62.40;;;;;;5012017;28;20474;-70
2021/10/04 08:45:59;;;;;;;2.20;0.68;;;22.30;62.40;;;;;;5011652;28;20029;-69
2021/10/04 08:48:26;;;;;;;0.77;0.55;;;22.40;62.40;;;;;;5012433;28;20038;-70
2021/10/04 08:50:55;;;;;;;2.00;0.70;;;22.30;62.90;;;;;;5011498;28;20113;-65
2021/10/04 08:53:21;;;;;;;4.20;0.82;;;22.40;62.40;;;;;;5011895;28;20033;-69
2021/10/04 08:55:46;;;;;;;0.75;0.60;;;22.30;62.40;;;;;;5011779;28;20030;-70
2021/10/04 08:58:12;;;;;;;1.60;0.68;;;22.30;62.40;;;;;;5010676;28;20212;-70
2021/10/04 09:00:39;;;;;;;1.42;0.70;;;22.30;62.20;;;;;;5011336;28;20121;-69
2021/10/04 09:03:05;;;;;;;3.17;1.45;;;22.30;62.10;;;;;;5010037;28;20038;-70
2021/10/04 09:05:32;;;;;;;1.83;0.70;;;22.30;62.20;;;;;;5010574;28;20030;-70
2021/10/04 09:08:07;;;;;;;0.85;0.47;;;22.30;62.20;;;;;;5011527;28;20053;-70
2021/10/04 09:10:38;;;;;;;2.45;0.68;;;22.30;62.20;;;;;;5012086;28;20026;-70
2021/10/04 09:13:12;;;;;;;3.42;0.80;;;22.30;62.20;;;;;;5010869;28;20045;-70
2021/10/04 09:15:44;;;;;;;1.98;1.00;;;22.30;62.30;;;;;;5011800;28;20038;-70
2021/10/04 09:18:15;;;;;;;2.03;0.60;;;22.30;62.20;;;;;;5011236;28;20113;-70
2021/10/04 09:20:55;;;;;;;1.98;0.57;;;22.30;62.20;;;;;;5011932;28;20045;-68
2021/10/04 09:23:27;;;;;;;1.10;0.60;;;22.30;62.20;;;;;;5012293;28;20042;-70
2021/10/04 09:25:52;;;;;;;1.88;1.10;;;22.30;62.20;;;;;;4991827;28;20545;-64
2021/10/04 09:28:30;;;;;;;2.22;0.60;;;22.30;62.20;;;;;;4992779;28;20117;-70
2021/10/04 09:31:14;;;;;;;1.48;0.75;;;22.30;62.20;;;;;;5011205;28;20034;-64
2021/10/04 09:34:06;;;;;;;1.35;0.77;;;22.30;62.10;;;;;;5011588;28;20080;-69
2021/10/04 09:36:42;;;;;;;1.58;0.75;;;22.30;62.10;;;;;;5011285;28;20482;-70
2021/10/04 09:39:18;;;;;;;1.33;0.60;;;22.30;62.10;;;;;;5010728;28;20129;-70
2021/10/04 09:42:05;;;;;;;1.25;0.60;;;22.30;62.00;;;;;;5011995;28;20084;-70
2021/10/04 09:44:56;;;;;;;3.60;0.77;;;22.30;62.00;;;;;;5011536;28;20034;-70
2021/10/04 09:47:25;;;;;;;1.92;0.60;;;22.20;61.70;;;;;;5010744;28;20026;-70
2021/10/04 09:49:55;;;;;;;1.85;0.70;;;22.30;61.50;;;;;;5011455;28;20455;-70
2021/10/04 09:52:33;;;;;;;0.68;0.47;;;22.20;61.70;;;;;;5011209;28;20037;-70
2021/10/04 09:54:59;;;;;;;1.48;0.50;;;22.20;61.80;;;;;;5010903;28;20117;-69
2021/10/04 09:57:24;;;;;;;2.25;0.57;;;22.30;61.80;;;;;;5011564;28;20061;-70
2021/10/04 09:59:50;;;;;;;1.92;0.60;;;22.30;61.90;;;;;;5010110;28;20033;-70
2021/10/04 10:02:17;;;;;;;1.40;0.82;;;22.20;61.80;;;;;;5010685;28;20065;-70
2021/10/04 10:04:46;;;;;;;1.40;0.63;;;22.20;61.70;;;;;;5011533;28;20117;-68
2021/10/04 10:07:12;;;;;;;2.30;0.75;;;22.30;61.80;;;;;;5010674;28;20052;-70
2021/10/04 10:09:40;;;;;;;2.25;0.63;;;22.30;61.90;;;;;;5011401;28;20034;-70
2021/10/04 10:12:07;;;;;;;2.08;0.50;;;22.30;61.80;;;;;;5010897;28;20037;-70
2021/10/04 10:14:44;;;;;;;3.35;0.98;;;22.20;61.80;;;;;;5011245;28;20030;-70
2021/10/04 10:17:16;;;;;;;0.95;0.52;;;22.20;61.80;;;;;;5010596;28;20026;-69
2021/10/04 10:19:43;;;;;;;2.35;0.75;;;22.30;61.70;;;;;;5011413;28;20050;-70
2021/10/04 10:22:14;;;;;;;3.10;0.57;;;22.20;61.70;;;;;;5010298;28;20502;-69
2021/10/04 10:24:40;;;;;;;0.77;0.52;;;22.20;61.80;;;;;;5011757;28;20482;-70
2021/10/04 10:27:05;;;;;;;0.95;0.50;;;22.20;61.80;;;;;;5009398;28;20026;-70
2021/10/04 10:29:32;;;;;;;0.70;0.60;;;22.20;61.80;;;;;;5011142;28;20034;-70
2021/10/04 10:31:57;;;;;;;1.15;0.73;;;22.30;61.90;;;;;;5010346;28;20103;-64
2021/10/04 10:34:23;;;;;;;0.85;0.57;;;22.20;61.80;;;;;;5011255;28;20034;-70
2021/10/04 10:37:11;;;;;;;0.52;0.40;;;22.20;61.70;;;;;;5010528;28;20026;-70
2021/10/04 10:39:57;;;;;;;1.77;0.60;;;22.20;61.80;;;;;;5011715;28;20117;-70
2021/10/04 10:42:34;;;;;;;0.57;0.40;;;22.30;61.80;;;;;;5014277;28;20037;-70
2021/10/04 10:45:00;;;;;;;3.10;0.50;;;22.20;61.70;;;;;;5014609;28;20033;-67
2021/10/04 10:47:35;;;;;;;0.90;0.60;;;22.20;61.60;;;;;;5034485;28;20022;-69
2021/10/04 10:50:10;;;;;;;0.90;0.50;;;22.30;61.80;;;;;;5021329;28;20088;-70
2021/10/04 10:52:38;;;;;;;0.75;0.40;;;22.30;61.90;;;;;;5014667;28;20038;-71
2021/10/04 10:55:18;;;;;;;1.13;0.50;;;22.30;62.00;;;;;;5013773;28;20154;-71
2021/10/04 10:58:02;;;;;;;1.10;0.45;;;22.30;61.80;;;;;;5014410;28;20026;-70
2021/10/04 11:00:31;;;;;;;0.73;0.60;;;22.30;61.60;;;;;;5013516;28;20022;-70
2021/10/04 11:02:59;;;;;;;0.47;0.40;;;22.30;61.70;;;;;;5013868;28;20034;-65
2021/10/04 11:05:34;;;;;;;5.85;0.60;;;22.30;62.00;;;;;;5014137;28;20030;-71
2021/10/04 11:08:00;;;;;;;0.60;0.50;;;22.30;61.80;;;;;;5013872;28;20060;-70
2021/10/04 11:10:27;;;;;;;1.77;0.57;;;22.30;61.20;;;;;;5014035;28;20080;-71
2021/10/04 11:13:08;;;;;;;2.38;0.50;;;22.30;61.40;;;;;;5014328;28;20383;-70
2021/10/04 11:15:35;;;;;;;2.38;0.50;;;22.30;61.50;;;;;;4999856;28;20084;-70
2021/10/04 11:18:01;;;;;;;2.33;0.60;;;22.30;61.20;;;;;;5013030;28;20034;-69
2021/10/04 11:20:27;;;;;;;2.45;0.50;;;22.30;61.00;;;;;;5013644;28;20037;-71
2021/10/04 11:23:13;;;;;;;1.00;0.50;;;22.30;61.10;;;;;;5014154;28;20084;-70
2021/10/04 11:25:48;;;;;;;1.10;0.52;;;22.30;61.00;;;;;;5012317;28;20038;-71
2021/10/04 11:28:19;;;;;;;1.95;0.40;;;22.30;61.00;;;;;;5012757;28;20034;-70
2021/10/04 11:30:59;;;;;;;1.10;0.60;;;22.30;61.00;;;;;;5014221;28;20032;-69
2021/10/04 11:33:30;;;;;;;2.03;0.60;;;22.30;61.00;;;;;;5013587;28;20048;-71
2021/10/04 11:36:09;;;;;;;1.02;0.63;;;22.30;61.30;;;;;;5013523;28;20034;-70
2021/10/04 11:38:52;;;;;;;2.25;0.90;;;22.30;60.90;;;;;;5013289;28;20048;-70
2021/10/04 11:41:38;;;;;;;1.20;0.50;;;22.30;61.00;;;;;;5012811;28;20044;-70
2021/10/04 11:44:07;;;;;;;0.70;0.50;;;22.30;61.00;;;;;;5003120;28;20037;-70
2021/10/04 11:46:37;;;;;;;0.90;0.52;;;22.30;60.90;;;;;;5012552;28;20371;-71
2021/10/04 11:49:12;;;;;;;1.25;0.77;;;22.30;60.80;;;;;;5012316;28;20042;-70
2021/10/04 11:51:50;;;;;;;2.97;0.65;;;22.30;61.10;;;;;;5024386;28;20025;-70
2021/10/04 11:54:39;;;;;;;3.63;0.50;;;22.30;61.80;;;;;;5022697;28;20041;-70
2021/10/04 11:57:06;;;;;;;2.50;0.45;;;22.30;61.00;;;;;;4983812;28;20134;-70
2021/10/04 12:00:08;;;;;;;2.97;0.68;;;22.40;60.20;;;;;;5005302;28;20037;-70
2021/10/04 12:02:37;;;;;;;5.55;0.75;;;22.40;59.80;;;;;;4972074;28;20054;-70
2021/10/04 12:05:11;;;;;;;2.47;0.60;;;22.40;59.80;;;;;;5008624;28;20072;-70
2021/10/04 12:07:38;;;;;;;1.17;0.40;;;22.40;59.50;;;;;;5012672;28;20054;-70
2021/10/04 12:10:05;;;;;;;4.03;0.70;;;22.40;59.50;;;;;;5011717;28;20038;-70
2021/10/04 12:12:37;;;;;;;2.10;0.50;;;22.40;60.00;;;;;;5012900;28;20030;-71
2021/10/04 12:15:05;;;;;;;0.75;0.40;;;22.40;59.30;;;;;;5011705;28;20034;-69
2021/10/04 12:17:36;;;;;;;1.75;0.45;;;22.40;59.20;;;;;;5011601;28;20357;-70
2021/10/04 12:20:03;;;;;;;1.50;0.53;;;22.40;59.10;;;;;;5012235;28;20499;-65
2021/10/04 12:22:33;;;;;;;0.85;0.40;;;22.30;59.10;;;;;;5012771;28;20463;-70
2021/10/04 12:24:59;;;;;;;0.40;0.30;;;22.30;59.20;;;;;;5012599;28;20029;-65
2021/10/04 12:27:24;;;;;;;0.82;0.50;;;22.30;59.60;;;;;;5012017;28;20022;-71
2021/10/04 12:29:59;;;;;;;1.27;0.60;;;22.30;59.40;;;;;;5011977;28;20498;-69
2021/10/04 12:32:28;;;;;;;0.98;0.50;;;22.30;59.60;;;;;;5012303;28;20489;-70
2021/10/04 12:35:14;;;;;;;2.33;0.40;;;22.30;59.20;;;;;;5012271;28;20493;-70
2021/10/04 12:37:43;;;;;;;0.70;0.40;;;22.30;59.10;;;;;;5012819;28;20033;-70
2021/10/04 12:40:40;;;;;;;0.50;0.32;;;22.30;58.80;;;;;;5011502;28;20052;-70
2021/10/04 12:43:15;;;;;;;1.05;0.45;;;22.30;58.70;;;;;;5011760;28;20037;-69
2021/10/04 12:46:02;;;;;;;1.17;0.63;;;22.30;58.90;;;;;;5012656;28;20025;-70
2021/10/04 12:48:35;;;;;;;0.68;0.50;;;22.30;59.10;;;;;;5012306;28;20133;-70
2021/10/04 12:51:17;;;;;;;3.10;0.50;;;22.30;59.00;;;;;;5011502;28;20384;-65
2021/10/04 12:53:46;;;;;;;2.25;0.40;;;22.30;59.00;;;;;;5017362;28;20033;-71